Time;durP1;ratioP1;P1;durP2;ratioP2;P2;SDS_P1;SDS_P2;PMS_P1;PMS_P2;Temp;Humidity;BMP_temperature;BMP_pressure;BME280_temperature;BME280_humidity;BME280_pressure;Samples;Min_cycle;Max_cycle;Signal;HPM_P1;HPM_P2
2023/06/25 00:00:17;;;;;;;14.37;12.60;;;19.70;99.90;;;;;;5051447;28;20443;-51
2023/06/25 00:02:47;;;;;;;15.97;12.63;;;19.70;99.90;;;;;;5052579;28;20787;-49
2023/06/25 00:05:14;;;;;;;13.90;11.43;;;19.70;99.90;;;;;;5051965;28;20948;-49
2023/06/25 00:07:41;;;;;;;13.23;11.93;;;19.60;99.90;;;;;;5052168;28;20752;-50
2023/06/25 00:10:08;;;;;;;13.83;11.90;;;19.60;99.90;;;;;;5051791;28;20432;-49
2023/06/25 00:12:36;;;;;;;13.43;12.07;;;19.60;99.90;;;;;;5033978;28;20486;-49
2023/06/25 00:15:04;;;;;;;13.20;11.77;;;19.60;99.90;;;;;;5052129;28;20430;-48
2023/06/25 00:17:30;;;;;;;11.77;10.67;;;19.60;99.90;;;;;;5051841;28;20477;-49
2023/06/25 00:19:58;;;;;;;15.07;11.93;;;19.70;99.90;;;;;;5051653;28;20858;-49
2023/06/25 00:22:25;;;;;;;12.00;10.90;;;19.70;99.90;;;;;;5052083;28;20491;-49
2023/06/25 00:24:52;;;;;;;14.50;13.10;;;19.70;99.90;;;;;;5052563;28;20522;-48
2023/06/25 00:27:20;;;;;;;13.57;12.37;;;19.80;99.90;;;;;;5051600;28;20802;-48
2023/06/25 00:29:48;;;;;;;14.67;12.37;;;19.80;99.90;;;;;;5033560;28;20435;-50
2023/06/25 00:32:16;;;;;;;13.73;12.43;;;19.60;99.90;;;;;;5033442;28;20486;-50
2023/06/25 00:34:42;;;;;;;13.73;10.87;;;19.90;99.90;;;;;;5051822;28;20477;-49
2023/06/25 00:37:16;;;;;;;13.13;11.73;;;19.90;99.90;;;;;;5033876;28;20464;-49
2023/06/25 00:39:43;;;;;;;13.50;12.17;;;20.00;99.90;;;;;;5051377;28;20451;-49
2023/06/25 00:42:10;;;;;;;20.33;12.07;;;20.00;99.90;;;;;;5033807;28;20454;-49
2023/06/25 00:44:40;;;;;;;13.87;12.47;;;19.90;99.90;;;;;;5033561;28;20465;-49
2023/06/25 00:47:12;;;;;;;16.17;12.67;;;20.00;99.90;;;;;;5033493;28;20457;-49
2023/06/25 00:49:39;;;;;;;15.10;11.80;;;20.00;99.90;;;;;;5051342;28;20999;-49
2023/06/25 00:52:08;;;;;;;14.20;12.83;;;20.20;99.90;;;;;;5033318;28;20847;-49
2023/06/25 00:54:38;;;;;;;14.10;12.10;;;20.10;99.90;;;;;;5033348;28;20456;-49
2023/06/25 00:57:06;;;;;;;13.27;11.90;;;19.80;99.90;;;;;;5051296;28;20489;-48
2023/06/25 00:59:33;;;;;;;12.30;11.00;;;20.10;99.90;;;;;;5033193;28;20475;-49
2023/06/25 01:02:06;;;;;;;13.40;12.10;;;20.10;99.90;;;;;;5033357;28;20571;-48
2023/06/25 01:04:41;;;;;;;14.20;12.60;;;20.10;99.90;;;;;;5051923;28;20818;-49
2023/06/25 01:07:16;;;;;;;13.60;11.67;;;20.20;99.90;;;;;;5033312;28;20452;-48
2023/06/25 01:09:46;;;;;;;12.90;11.60;;;20.20;99.90;;;;;;5050857;28;20559;-49
2023/06/25 01:12:13;;;;;;;13.60;12.20;;;20.20;99.90;;;;;;5051676;28;20813;-50
2023/06/25 01:14:40;;;;;;;13.67;12.13;;;20.20;99.90;;;;;;5051311;28;20513;-48
2023/06/25 01:17:08;;;;;;;13.77;11.63;;;20.30;99.90;;;;;;5050976;28;20444;-49
2023/06/25 01:19:36;;;;;;;13.90;12.60;;;20.20;99.90;;;;;;5051201;28;20428;-48
2023/06/25 01:22:04;;;;;;;13.73;12.40;;;20.30;99.90;;;;;;5034150;28;20827;-48
2023/06/25 01:24:34;;;;;;;14.37;12.93;;;20.30;99.90;;;;;;5033272;28;20472;-49
2023/06/25 01:27:03;;;;;;;13.77;12.37;;;20.30;99.90;;;;;;5033338;28;20448;-49
2023/06/25 01:29:32;;;;;;;14.87;11.70;;;20.30;99.90;;;;;;5032743;28;20447;-48
2023/06/25 01:31:59;;;;;;;12.50;11.30;;;20.30;99.90;;;;;;5050602;28;20960;-49
2023/06/25 01:34:26;;;;;;;12.37;11.23;;;20.00;99.90;;;;;;5058056;22;20574;-47
2023/06/25 01:36:53;;;;;;;12.90;11.60;;;20.40;99.90;;;;;;5051511;28;20524;-47
2023/06/25 01:39:23;;;;;;;14.13;12.63;;;20.10;99.90;;;;;;5036483;28;20555;-48
2023/06/25 01:41:51;;;;;;;13.80;11.60;;;20.40;99.90;;;;;;5055188;28;20522;-49
2023/06/25 01:44:25;;;;;;;17.83;12.17;;;20.50;99.90;;;;;;5037144;28;20476;-47
2023/06/25 01:46:52;;;;;;;16.80;12.23;;;20.40;99.90;;;;;;5055072;28;20439;-47
2023/06/25 01:49:18;;;;;;;14.20;12.70;;;20.30;99.90;;;;;;5036906;28;20502;-47
2023/06/25 01:51:45;;;;;;;14.07;11.27;;;20.40;99.90;;;;;;5037171;28;20502;-47
2023/06/25 01:54:12;;;;;;;13.70;12.30;;;20.40;99.90;;;;;;5036965;28;20472;-48
2023/06/25 01:56:38;;;;;;;14.83;11.60;;;20.50;99.90;;;;;;5055022;28;20439;-47
2023/06/25 01:59:06;;;;;;;12.93;11.53;;;20.50;99.90;;;;;;5036568;28;20482;-48
2023/06/25 02:01:33;;;;;;;13.80;11.37;;;20.50;99.90;;;;;;5037066;28;20454;-46
2023/06/25 02:04:00;;;;;;;12.90;11.60;;;20.50;99.90;;;;;;5036764;28;21102;-48
2023/06/25 02:06:27;;;;;;;12.40;11.10;;;20.50;99.90;;;;;;5054612;28;20432;-47
2023/06/25 02:08:54;;;;;;;13.83;12.43;;;20.40;99.90;;;;;;5036420;28;21043;-46
2023/06/25 02:11:21;;;;;;;14.13;12.73;;;20.50;99.90;;;;;;5036924;28;20474;-47
2023/06/25 02:13:47;;;;;;;13.50;12.20;;;20.50;99.90;;;;;;5036466;28;20474;-47
2023/06/25 02:16:15;;;;;;;12.53;11.30;;;20.50;99.90;;;;;;5036852;28;20491;-48
2023/06/25 02:18:42;;;;;;;12.80;11.50;;;20.50;99.90;;;;;;5036215;28;20457;-48
2023/06/25 02:21:08;;;;;;;13.40;12.00;;;20.50;99.90;;;;;;5036892;28;20953;-47
2023/06/25 02:23:35;;;;;;;14.30;12.90;;;20.50;99.90;;;;;;5054346;28;20449;-48
2023/06/25 02:26:02;;;;;;;12.50;11.20;;;20.50;99.90;;;;;;5036756;28;20457;-47
2023/06/25 02:28:28;;;;;;;12.20;11.00;;;20.60;99.90;;;;;;5054173;28;20447;-47
2023/06/25 02:30:55;;;;;;;14.50;13.10;;;20.60;99.90;;;;;;5054528;28;20433;-47
2023/06/25 02:33:23;;;;;;;12.83;11.40;;;20.50;99.90;;;;;;5054405;28;20511;-47
2023/06/25 02:35:49;;;;;;;13.37;11.97;;;20.50;99.90;;;;;;5054371;28;20529;-47
2023/06/25 02:38:16;;;;;;;11.40;10.20;;;20.60;99.90;;;;;;5035897;28;20832;-47
2023/06/25 02:40:43;;;;;;;12.43;11.33;;;20.40;99.90;;;;;;5054777;28;20818;-48
2023/06/25 02:43:09;;;;;;;12.37;11.17;;;20.40;99.90;;;;;;5036491;28;20460;-47
2023/06/25 02:45:36;;;;;;;12.83;11.63;;;20.60;99.90;;;;;;5054254;28;20436;-47
2023/06/25 02:48:05;;;;;;;12.60;11.30;;;20.60;99.90;;;;;;5035724;28;20448;-47
2023/06/25 02:50:33;;;;;;;14.13;11.50;;;20.50;99.90;;;;;;5035969;28;20536;-47
2023/06/25 02:53:00;;;;;;;14.60;13.20;;;20.60;99.90;;;;;;5035853;28;20472;-48
2023/06/25 02:55:27;;;;;;;13.17;11.90;;;20.10;99.90;;;;;;5054322;28;20791;-47
2023/06/25 02:57:53;;;;;;;18.03;11.93;;;20.40;99.90;;;;;;5054266;28;20450;-47
2023/06/25 03:00:20;;;;;;;12.93;11.53;;;20.50;99.90;;;;;;5035434;28;20460;-47
2023/06/25 03:02:47;;;;;;;11.70;10.50;;;20.50;99.90;;;;;;5036313;28;20491;-47
2023/06/25 03:05:13;;;;;;;13.40;12.20;;;20.40;99.90;;;;;;5036067;28;20881;-48
2023/06/25 03:07:50;;;;;;;14.33;12.80;;;20.50;99.90;;;;;;5053973;28;20494;-48
2023/06/25 03:10:18;;;;;;;12.03;10.87;;;20.50;99.90;;;;;;5035867;28;20543;-46
2023/06/25 03:12:45;;;;;;;13.73;12.43;;;20.50;99.90;;;;;;5054004;28;20845;-47
2023/06/25 03:15:12;;;;;;;12.27;11.03;;;20.50;99.90;;;;;;5053855;28;20453;-47
2023/06/25 03:17:38;;;;;;;13.63;12.40;;;20.50;99.90;;;;;;5053673;28;20472;-47
2023/06/25 03:20:06;;;;;;;12.53;11.43;;;20.50;99.90;;;;;;5035224;28;20451;-47
2023/06/25 03:22:33;;;;;;;13.47;12.17;;;20.60;99.90;;;;;;5053991;28;20447;-45
2023/06/25 03:25:01;;;;;;;12.33;11.10;;;20.50;99.90;;;;;;5035905;28;20836;-47
2023/06/25 03:27:28;;;;;;;11.70;10.60;;;20.60;99.90;;;;;;5035686;28;20461;-47
2023/06/25 03:29:57;;;;;;;13.00;11.80;;;20.50;99.90;;;;;;5035235;28;20453;-47
2023/06/25 03:32:24;;;;;;;10.93;9.77;;;20.60;99.90;;;;;;5035615;28;20473;-47
2023/06/25 03:34:51;;;;;;;11.70;10.50;;;20.60;99.90;;;;;;5035670;28;20558;-47
2023/06/25 03:37:18;;;;;;;12.83;11.30;;;20.50;99.90;;;;;;5035790;28;20459;-47
2023/06/25 03:39:45;;;;;;;12.57;11.27;;;20.60;99.90;;;;;;5035183;28;20453;-46
2023/06/25 03:42:14;;;;;;;11.80;10.60;;;20.60;99.90;;;;;;5035370;28;20535;-47
2023/06/25 03:44:48;;;;;;;13.20;11.90;;;20.60;99.90;;;;;;5053206;28;20489;-47
2023/06/25 03:47:17;;;;;;;13.00;10.60;;;20.70;99.90;;;;;;5035370;28;20550;-47
2023/06/25 03:49:43;;;;;;;12.23;10.87;;;20.60;99.90;;;;;;5034754;28;20486;-47
2023/06/25 03:52:10;;;;;;;11.40;10.27;;;20.50;99.90;;;;;;5034999;28;20471;-48
2023/06/25 03:54:37;;;;;;;13.63;12.23;;;20.70;99.90;;;;;;5035187;28;20476;-47
2023/06/25 03:57:04;;;;;;;11.10;10.10;;;20.80;99.90;;;;;;5035617;28;20879;-47
2023/06/25 03:59:32;;;;;;;11.90;10.70;;;20.80;99.90;;;;;;5034605;28;20454;-47
2023/06/25 04:01:59;;;;;;;10.80;9.70;;;20.80;99.90;;;;;;5034214;28;20453;-48
2023/06/25 04:04:25;;;;;;;12.90;11.70;;;20.80;99.90;;;;;;5052817;28;20458;-46
2023/06/25 04:06:53;;;;;;;14.83;10.53;;;20.80;99.90;;;;;;5053083;28;20527;-48
2023/06/25 04:09:21;;;;;;;15.30;10.63;;;20.80;99.90;;;;;;5034752;28;20448;-47
2023/06/25 04:11:47;;;;;;;15.83;11.30;;;20.90;99.90;;;;;;5034706;28;20464;-46
2023/06/25 04:14:15;;;;;;;11.83;10.70;;;20.90;99.90;;;;;;5034640;28;20476;-47
2023/06/25 04:16:43;;;;;;;16.30;12.10;;;20.80;99.90;;;;;;5052623;28;20448;-48
2023/06/25 04:19:10;;;;;;;13.30;11.33;;;20.80;99.90;;;;;;5052452;28;20449;-47
2023/06/25 04:21:37;;;;;;;11.30;10.20;;;21.00;99.90;;;;;;5034569;28;20492;-47
2023/06/25 04:24:04;;;;;;;12.13;11.03;;;21.00;99.90;;;;;;5034727;28;20618;-48
2023/06/25 04:26:31;;;;;;;12.30;11.17;;;21.00;99.90;;;;;;5034656;28;20454;-48
2023/06/25 04:28:58;;;;;;;12.67;11.40;;;21.00;99.90;;;;;;5034351;28;20448;-47
2023/06/25 04:31:24;;;;;;;11.70;10.27;;;21.10;99.90;;;;;;5034469;28;20958;-47
2023/06/25 04:33:53;;;;;;;13.17;11.93;;;21.10;99.90;;;;;;5034187;28;20553;-47
2023/06/25 04:36:20;;;;;;;13.10;11.43;;;21.20;99.90;;;;;;5034292;28;20447;-48
2023/06/25 04:38:52;;;;;;;13.43;12.13;;;21.10;99.90;;;;;;5034074;28;20467;-47
2023/06/25 04:41:21;;;;;;;12.43;11.23;;;21.30;99.90;;;;;;5034383;28;20461;-47
2023/06/25 04:43:47;;;;;;;15.10;11.97;;;21.30;99.90;;;;;;5034214;28;20972;-47
2023/06/25 04:46:14;;;;;;;12.13;10.73;;;21.30;99.90;;;;;;5034565;28;20496;-46
2023/06/25 04:48:45;;;;;;;11.47;10.37;;;21.30;99.90;;;;;;5051698;28;20439;-47
2023/06/25 04:51:13;;;;;;;11.47;10.37;;;21.40;99.90;;;;;;5034445;28;20794;-47
2023/06/25 04:53:40;;;;;;;13.00;10.50;;;21.40;99.90;;;;;;5051832;28;20852;-47
2023/06/25 04:56:06;;;;;;;13.40;11.03;;;21.50;99.90;;;;;;5051810;28;20442;-48
2023/06/25 04:58:35;;;;;;;11.60;10.60;;;21.50;99.90;;;;;;5051816;28;20446;-47
2023/06/25 05:01:02;;;;;;;16.03;10.43;;;21.50;99.90;;;;;;5051790;28;20882;-48
2023/06/25 05:03:28;;;;;;;22.43;11.37;;;21.60;99.90;;;;;;5051697;28;20481;-48
2023/06/25 05:05:55;;;;;;;12.13;10.23;;;21.50;99.90;;;;;;5051866;28;20944;-49
2023/06/25 05:08:23;;;;;;;11.47;10.37;;;21.60;99.90;;;;;;5033525;28;20450;-48
2023/06/25 05:10:50;;;;;;;12.27;10.60;;;21.50;99.90;;;;;;5051562;28;20438;-48
2023/06/25 05:13:16;;;;;;;11.77;10.20;;;21.80;99.90;;;;;;5055046;28;20481;-48
2023/06/25 05:15:43;;;;;;;10.70;9.57;;;21.80;99.90;;;;;;5055588;28;20458;-48
2023/06/25 05:18:09;;;;;;;11.70;10.10;;;21.80;99.90;;;;;;5055496;28;20434;-47
2023/06/25 05:20:37;;;;;;;9.10;8.27;;;21.70;99.90;;;;;;5055569;28;20437;-47
2023/06/25 05:23:04;;;;;;;9.53;8.63;;;21.80;99.90;;;;;;5037502;28;20496;-48
2023/06/25 05:25:33;;;;;;;11.27;10.00;;;21.90;99.90;;;;;;5037692;28;20445;-47
2023/06/25 05:28:01;;;;;;;11.23;9.50;;;21.90;99.90;;;;;;5055535;28;20424;-47
2023/06/25 05:30:28;;;;;;;9.63;8.73;;;21.90;99.90;;;;;;5055038;28;20430;-47
2023/06/25 05:32:54;;;;;;;12.67;9.80;;;21.90;99.90;;;;;;5037126;28;20473;-48
2023/06/25 05:35:21;;;;;;;9.97;8.87;;;22.00;99.90;;;;;;5055410;28;20434;-47
2023/06/25 05:37:48;;;;;;;9.70;8.80;;;22.00;99.90;;;;;;5055116;28;20427;-48
2023/06/25 05:40:14;;;;;;;13.03;9.53;;;22.10;99.90;;;;;;5055020;28;20443;-47
2023/06/25 05:42:42;;;;;;;9.93;8.93;;;22.10;99.90;;;;;;5055108;28;20426;-48
2023/06/25 05:45:10;;;;;;;9.60;8.70;;;22.00;99.90;;;;;;5054811;28;20542;-49
2023/06/25 05:47:37;;;;;;;11.10;8.73;;;22.20;99.90;;;;;;5055147;28;20437;-47
2023/06/25 05:50:04;;;;;;;11.03;9.60;;;22.20;99.90;;;;;;5054681;28;20432;-47
2023/06/25 05:52:30;;;;;;;9.93;8.80;;;22.30;99.90;;;;;;5055065;28;20486;-47
2023/06/25 05:54:57;;;;;;;10.03;9.03;;;22.60;99.90;;;;;;5054755;28;20885;-46
2023/06/25 05:57:25;;;;;;;9.97;9.07;;;22.50;99.90;;;;;;5054954;28;20446;-48
2023/06/25 05:59:53;;;;;;;9.60;8.63;;;22.60;99.90;;;;;;5054604;28;20435;-47
2023/06/25 06:02:19;;;;;;;13.47;9.70;;;22.80;99.90;;;;;;5054700;28;20439;-47
2023/06/25 06:04:46;;;;;;;9.40;8.40;;;22.90;99.90;;;;;;5054509;28;20502;-47
2023/06/25 06:07:13;;;;;;;9.40;8.53;;;23.00;99.90;;;;;;5054684;28;20441;-47
2023/06/25 06:09:39;;;;;;;9.43;8.60;;;23.10;99.90;;;;;;5054366;28;20432;-47
2023/06/25 06:12:06;;;;;;;8.70;7.90;;;23.20;99.70;;;;;;5054772;28;20443;-48
2023/06/25 06:14:34;;;;;;;8.47;7.60;;;23.30;99.40;;;;;;5054475;28;20500;-47
2023/06/25 06:17:02;;;;;;;8.53;7.70;;;23.40;99.10;;;;;;5054655;28;20956;-49
2023/06/25 06:19:29;;;;;;;9.87;7.70;;;23.50;98.80;;;;;;5054258;28;20437;-47
2023/06/25 06:21:55;;;;;;;9.13;8.23;;;23.60;98.60;;;;;;5054563;28;20427;-47
2023/06/25 06:24:22;;;;;;;8.70;7.90;;;23.70;98.40;;;;;;5053715;28;20449;-48
2023/06/25 06:26:49;;;;;;;8.60;7.80;;;23.80;98.30;;;;;;5054655;28;20435;-47
2023/06/25 06:29:17;;;;;;;8.93;7.40;;;23.90;98.00;;;;;;5054311;28;20437;-47
2023/06/25 06:31:44;;;;;;;8.47;7.67;;;24.00;97.60;;;;;;5054760;28;20470;-48
2023/06/25 06:34:12;;;;;;;9.67;8.00;;;24.10;97.50;;;;;;5053758;28;20504;-48
2023/06/25 06:36:38;;;;;;;9.30;8.37;;;24.20;97.50;;;;;;5053988;28;20425;-48
2023/06/25 06:39:05;;;;;;;9.40;8.60;;;24.30;97.40;;;;;;5053717;28;20938;-48
2023/06/25 06:41:32;;;;;;;9.10;8.23;;;24.40;97.30;;;;;;5054034;28;20438;-48
2023/06/25 06:44:11;;;;;;;9.30;8.50;;;24.50;97.20;;;;;;5053801;28;20451;-47
2023/06/25 06:46:37;;;;;;;9.40;8.50;;;24.60;97.00;;;;;;5053899;28;20434;-48
2023/06/25 06:49:04;;;;;;;9.50;8.07;;;24.70;96.90;;;;;;5053659;28;20437;-48
2023/06/25 06:51:32;;;;;;;8.30;7.57;;;24.80;96.50;;;;;;5053922;28;20428;-48
2023/06/25 06:53:58;;;;;;;7.93;7.23;;;24.80;95.80;;;;;;5053614;28;20501;-48
2023/06/25 06:56:25;;;;;;;7.07;6.47;;;24.90;95.20;;;;;;5053704;28;20446;-48
2023/06/25 06:58:52;;;;;;;8.67;7.90;;;25.00;94.90;;;;;;5053290;28;20492;-49
2023/06/25 07:01:18;;;;;;;7.77;7.00;;;25.10;94.50;;;;;;5053701;28;20433;-49
2023/06/25 07:03:45;;;;;;;8.33;7.63;;;25.20;94.40;;;;;;5053746;28;20446;-47
2023/06/25 07:06:11;;;;;;;8.83;7.93;;;25.20;94.00;;;;;;5053556;28;20442;-47
2023/06/25 07:08:39;;;;;;;8.83;8.10;;;25.50;93.90;;;;;;5053166;28;20438;-47
2023/06/25 07:11:06;;;;;;;8.33;7.27;;;25.50;93.80;;;;;;5053632;28;20469;-48
2023/06/25 07:13:33;;;;;;;7.70;7.00;;;25.60;93.80;;;;;;5053437;28;21011;-47
2023/06/25 07:15:59;;;;;;;8.53;7.63;;;25.60;93.70;;;;;;5053233;28;20433;-49
2023/06/25 07:18:26;;;;;;;7.70;7.00;;;25.70;93.50;;;;;;5053034;28;20423;-46
2023/06/25 07:20:53;;;;;;;10.10;8.53;;;25.80;93.10;;;;;;5053344;28;20430;-47
2023/06/25 07:23:19;;;;;;;9.70;8.70;;;25.80;92.60;;;;;;5053098;28;20468;-48
2023/06/25 07:25:47;;;;;;;8.20;7.50;;;26.00;92.50;;;;;;5053263;28;20430;-47
2023/06/25 07:28:14;;;;;;;8.17;7.20;;;26.00;92.30;;;;;;5052827;28;20573;-49
2023/06/25 07:30:40;;;;;;;8.23;7.53;;;26.10;92.10;;;;;;5035163;28;20441;-47
2023/06/25 07:33:07;;;;;;;8.67;7.77;;;26.20;92.00;;;;;;5052699;28;20466;-47
2023/06/25 07:35:34;;;;;;;8.80;8.00;;;26.20;91.80;;;;;;5053580;28;20805;-47
2023/06/25 07:38:00;;;;;;;8.90;8.10;;;26.30;91.70;;;;;;5053167;28;20438;-47
2023/06/25 07:40:27;;;;;;;8.60;7.50;;;26.40;91.60;;;;;;5052790;28;20939;-47
2023/06/25 07:42:55;;;;;;;8.13;7.33;;;26.50;91.40;;;;;;5034807;28;20442;-46
2023/06/25 07:45:21;;;;;;;8.77;7.80;;;26.70;91.30;;;;;;5052708;28;20768;-46
2023/06/25 07:47:48;;;;;;;8.87;7.63;;;26.80;91.10;;;;;;5052841;28;20432;-46
2023/06/25 07:50:14;;;;;;;8.53;7.73;;;26.90;90.80;;;;;;5052551;28;20431;-47
2023/06/25 07:52:41;;;;;;;8.20;7.50;;;27.00;90.40;;;;;;5052761;28;20442;-46
2023/06/25 07:55:08;;;;;;;12.10;8.30;;;26.90;90.20;;;;;;5052247;28;20455;-47
2023/06/25 07:57:35;;;;;;;11.20;9.30;;;27.00;90.30;;;;;;5034902;28;20447;-47
2023/06/25 08:00:03;;;;;;;8.10;7.30;;;26.90;90.10;;;;;;5052185;28;20438;-47
2023/06/25 08:02:39;;;;;;;10.03;7.03;;;26.90;89.70;;;;;;5052253;28;20435;-46
2023/06/25 08:05:06;;;;;;;8.10;7.30;;;26.90;89.30;;;;;;5052566;28;20539;-47
2023/06/25 08:07:33;;;;;;;9.47;7.73;;;26.90;88.70;;;;;;5052457;28;20441;-47
2023/06/25 08:10:00;;;;;;;7.83;7.00;;;27.00;88.40;;;;;;5051929;28;20791;-45
2023/06/25 08:12:26;;;;;;;9.60;7.47;;;27.00;88.00;;;;;;5052274;28;20432;-45
2023/06/25 08:14:53;;;;;;;8.40;7.60;;;27.10;87.80;;;;;;5051943;28;20528;-49
2023/06/25 08:17:21;;;;;;;12.53;7.30;;;27.20;87.20;;;;;;5052147;28;20926;-47
2023/06/25 08:19:47;;;;;;;8.70;7.40;;;27.20;86.60;;;;;;5051950;28;20442;-46
2023/06/25 08:22:14;;;;;;;6.97;6.37;;;27.20;86.00;;;;;;5052085;28;20783;-46
2023/06/25 08:24:40;;;;;;;9.13;7.37;;;27.40;85.30;;;;;;5051893;28;20447;-47
2023/06/25 08:27:07;;;;;;;7.80;7.00;;;27.50;85.10;;;;;;5051952;28;20438;-46
2023/06/25 08:29:34;;;;;;;7.63;6.93;;;27.60;84.50;;;;;;5051749;28;20438;-48
2023/06/25 08:32:00;;;;;;;7.53;6.80;;;27.60;84.00;;;;;;5052235;28;20433;-47
2023/06/25 08:34:28;;;;;;;8.77;7.70;;;27.70;84.00;;;;;;5051897;28;20490;-46
2023/06/25 08:36:55;;;;;;;6.93;6.23;;;27.80;83.90;;;;;;5052039;28;20449;-47
2023/06/25 08:39:21;;;;;;;8.43;7.63;;;27.80;83.30;;;;;;5051329;28;20760;-47
2023/06/25 08:41:49;;;;;;;7.17;5.90;;;27.80;82.50;;;;;;5052151;28;20434;-48
2023/06/25 08:44:16;;;;;;;7.90;7.20;;;27.90;82.40;;;;;;5051798;28;20508;-48
2023/06/25 08:46:47;;;;;;;8.00;7.20;;;27.80;82.50;;;;;;5050966;28;20436;-47
2023/06/25 08:49:14;;;;;;;7.03;6.43;;;27.90;82.20;;;;;;5051289;28;21070;-48
2023/06/25 08:51:43;;;;;;;7.50;6.70;;;28.00;81.70;;;;;;5051658;28;20922;-47
2023/06/25 08:54:10;;;;;;;7.70;7.00;;;28.10;81.20;;;;;;5051310;28;20492;-46
2023/06/25 08:56:36;;;;;;;8.97;6.47;;;28.20;81.00;;;;;;5051277;28;20435;-47
2023/06/25 08:59:03;;;;;;;8.30;7.00;;;28.20;81.00;;;;;;5051089;28;20932;-46
2023/06/25 09:01:29;;;;;;;8.83;7.70;;;28.20;80.80;;;;;;5051333;28;20450;-47
2023/06/25 09:03:56;;;;;;;9.87;7.03;;;28.30;80.10;;;;;;5051653;28;20462;-48
2023/06/25 09:06:22;;;;;;;7.60;6.90;;;28.30;79.80;;;;;;5032894;28;20955;-46
2023/06/25 09:08:51;;;;;;;9.80;6.90;;;28.30;79.40;;;;;;5050867;28;20444;-45
2023/06/25 09:11:17;;;;;;;9.33;8.37;;;28.30;78.90;;;;;;5051352;28;20430;-46
2023/06/25 09:13:45;;;;;;;8.70;7.77;;;28.40;79.20;;;;;;5034482;28;20478;-49
2023/06/25 09:16:11;;;;;;;8.30;7.40;;;28.40;78.60;;;;;;5051828;28;20477;-49
2023/06/25 09:18:38;;;;;;;7.63;6.93;;;28.40;78.40;;;;;;5051491;28;20962;-48
2023/06/25 09:21:06;;;;;;;8.27;6.77;;;28.40;78.70;;;;;;5051166;28;20434;-49
2023/06/25 09:23:33;;;;;;;8.53;7.83;;;28.30;78.30;;;;;;5051266;28;20992;-49
2023/06/25 09:26:06;;;;;;;8.33;7.63;;;28.40;78.70;;;;;;5051245;28;20431;-48
2023/06/25 09:28:33;;;;;;;8.47;7.37;;;28.20;78.00;;;;;;5050881;28;20496;-49
2023/06/25 09:31:01;;;;;;;10.67;7.30;;;28.20;77.80;;;;;;5051242;28;20457;-48
2023/06/25 09:33:33;;;;;;;9.60;8.77;;;28.30;77.40;;;;;;5050956;28;20895;-48
2023/06/25 09:36:01;;;;;;;7.90;7.20;;;28.30;77.30;;;;;;5051380;28;20469;-49
2023/06/25 09:38:28;;;;;;;7.73;7.00;;;28.30;77.30;;;;;;5050496;28;20450;-49
2023/06/25 09:40:57;;;;;;;6.70;6.00;;;28.20;77.90;;;;;;5050907;28;20439;-48
2023/06/25 09:43:26;;;;;;;8.47;7.63;;;28.30;78.60;;;;;;5051166;28;20454;-47
2023/06/25 09:45:53;;;;;;;6.93;6.17;;;28.30;77.80;;;;;;5051484;28;20440;-48
2023/06/25 09:48:23;;;;;;;7.33;6.43;;;28.10;77.60;;;;;;5050821;28;20479;-48
2023/06/25 09:50:51;;;;;;;7.80;7.00;;;28.30;77.90;;;;;;5051399;28;20434;-49
2023/06/25 09:53:19;;;;;;;7.70;7.00;;;28.20;79.70;;;;;;5050971;28;20461;-47
2023/06/25 09:55:47;;;;;;;6.73;5.97;;;28.00;78.90;;;;;;5050940;28;20449;-48
2023/06/25 09:58:14;;;;;;;7.77;6.40;;;28.10;78.70;;;;;;5050366;28;20441;-47
2023/06/25 10:00:43;;;;;;;7.70;6.53;;;28.00;78.50;;;;;;5054583;28;20919;-48
2023/06/25 10:03:12;;;;;;;6.50;5.90;;;28.00;79.10;;;;;;5036607;28;20443;-47
2023/06/25 10:05:39;;;;;;;7.00;6.30;;;28.00;79.40;;;;;;5054473;28;20430;-49
2023/06/25 10:08:06;;;;;;;5.97;5.43;;;27.90;79.60;;;;;;5054218;28;20453;-48
2023/06/25 10:10:32;;;;;;;8.03;6.20;;;27.80;79.30;;;;;;5036514;28;20456;-48
2023/06/25 10:13:03;;;;;;;7.40;6.57;;;27.80;78.90;;;;;;5054514;28;20503;-48
2023/06/25 10:15:31;;;;;;;9.20;8.40;;;27.80;79.30;;;;;;5054395;28;20489;-48
2023/06/25 10:18:04;;;;;;;7.67;6.90;;;27.70;79.30;;;;;;5055065;28;20781;-48
2023/06/25 10:20:32;;;;;;;6.47;5.87;;;27.80;80.00;;;;;;5054775;28;20442;-48
2023/06/25 10:23:05;;;;;;;7.10;6.40;;;27.60;79.20;;;;;;5054479;28;20846;-48
2023/06/25 10:25:32;;;;;;;6.50;5.90;;;27.60;79.30;;;;;;5053981;28;20787;-47
2023/06/25 10:28:06;;;;;;;6.03;5.50;;;27.60;80.00;;;;;;5053976;28;20449;-49
2023/06/25 10:30:40;;;;;;;7.47;5.70;;;27.60;79.50;;;;;;5054183;28;20430;-49
2023/06/25 10:33:08;;;;;;;5.53;5.03;;;27.60;79.00;;;;;;5053844;28;20444;-48
2023/06/25 10:35:38;;;;;;;5.40;5.00;;;27.60;79.00;;;;;;5053486;28;20493;-49
2023/06/25 10:38:05;;;;;;;6.57;5.97;;;27.60;78.90;;;;;;5054007;28;20521;-48
2023/06/25 10:40:34;;;;;;;6.70;5.17;;;27.60;79.00;;;;;;5054155;28;20434;-48
2023/06/25 10:43:01;;;;;;;7.23;5.47;;;27.60;78.80;;;;;;5035518;28;20454;-48
2023/06/25 10:45:28;;;;;;;6.93;4.80;;;27.50;78.80;;;;;;5053874;28;20434;-48
2023/06/25 10:48:03;;;;;;;7.73;5.53;;;27.50;79.40;;;;;;5053869;28;20438;-48
2023/06/25 10:50:32;;;;;;;6.33;5.50;;;27.30;79.80;;;;;;5053463;28;20538;-49
2023/06/25 10:52:58;;;;;;;6.93;5.60;;;27.60;79.90;;;;;;5053679;28;20446;-47
2023/06/25 10:55:26;;;;;;;6.30;5.13;;;27.70;79.30;;;;;;5053438;28;20482;-50
2023/06/25 10:57:54;;;;;;;6.10;5.60;;;27.80;78.90;;;;;;5053239;28;20425;-48
2023/06/25 11:00:22;;;;;;;6.80;5.20;;;27.80;78.90;;;;;;5053182;28;20927;-49
2023/06/25 11:02:51;;;;;;;7.00;5.63;;;27.90;78.70;;;;;;5053403;28;20434;-47
2023/06/25 11:05:17;;;;;;;9.30;6.10;;;28.10;78.50;;;;;;5053587;28;20478;-48
2023/06/25 11:07:45;;;;;;;6.53;5.33;;;28.30;78.40;;;;;;5053252;28;20435;-49
2023/06/25 11:10:13;;;;;;;6.83;5.50;;;28.50;77.90;;;;;;5052520;28;20493;-48
2023/06/25 11:12:39;;;;;;;6.93;6.33;;;28.60;77.10;;;;;;5053005;28;20883;-48
2023/06/25 11:15:07;;;;;;;7.00;6.30;;;28.80;77.10;;;;;;5052686;28;20986;-48
2023/06/25 11:17:33;;;;;;;6.90;6.30;;;28.90;76.60;;;;;;5052761;28;20938;-48
2023/06/25 11:20:00;;;;;;;6.27;5.67;;;28.80;77.50;;;;;;5052296;28;20630;-50
2023/06/25 11:22:27;;;;;;;6.23;5.70;;;28.70;76.60;;;;;;5053124;28;20942;-48
2023/06/25 11:24:57;;;;;;;6.70;6.07;;;28.70;77.20;;;;;;5053284;28;20462;-48
2023/06/25 11:27:27;;;;;;;6.00;5.50;;;28.60;76.60;;;;;;5053166;28;20433;-48
2023/06/25 11:29:54;;;;;;;6.13;5.63;;;28.70;76.40;;;;;;5034724;28;20461;-49
2023/06/25 11:32:24;;;;;;;6.07;5.57;;;28.80;76.80;;;;;;5052599;28;20480;-47
2023/06/25 11:34:51;;;;;;;6.90;5.80;;;28.80;76.40;;;;;;5052816;28;20486;-47
2023/06/25 11:37:19;;;;;;;6.07;5.57;;;28.80;76.50;;;;;;5052754;28;20517;-48
2023/06/25 11:39:46;;;;;;;9.07;5.77;;;28.80;76.80;;;;;;5052359;28;20508;-48
2023/06/25 11:42:16;;;;;;;9.10;6.17;;;28.80;76.60;;;;;;5052306;28;20453;-48
2023/06/25 11:44:43;;;;;;;8.33;6.77;;;28.90;77.10;;;;;;5052455;28;20453;-48
2023/06/25 11:47:11;;;;;;;7.40;6.43;;;29.00;77.60;;;;;;5052334;28;20920;-48
2023/06/25 11:49:38;;;;;;;6.07;5.50;;;29.00;76.60;;;;;;5051955;28;20439;-47
2023/06/25 11:52:06;;;;;;;5.67;5.20;;;29.00;76.40;;;;;;5052643;28;20942;-48
2023/06/25 11:54:32;;;;;;;6.37;5.70;;;29.00;76.30;;;;;;5052225;28;20477;-48
2023/06/25 11:56:59;;;;;;;10.00;5.60;;;29.00;76.30;;;;;;5052233;28;20792;-49
2023/06/25 11:59:27;;;;;;;7.07;5.90;;;28.90;76.40;;;;;;5051981;28;20446;-48
2023/06/25 12:01:53;;;;;;;6.63;5.97;;;28.90;76.40;;;;;;5052438;28;20434;-48
2023/06/25 12:04:20;;;;;;;6.47;5.80;;;28.90;76.50;;;;;;5052445;28;20463;-49
2023/06/25 12:06:46;;;;;;;6.97;6.20;;;28.80;76.30;;;;;;5052558;28;20552;-48
2023/06/25 12:09:13;;;;;;;6.30;5.70;;;28.70;76.10;;;;;;5051545;28;20442;-48
2023/06/25 12:11:40;;;;;;;7.60;6.90;;;28.70;76.00;;;;;;5034325;28;20454;-48
2023/06/25 12:14:06;;;;;;;5.97;5.47;;;28.70;76.20;;;;;;5052085;28;20481;-49
2023/06/25 12:16:34;;;;;;;7.60;6.10;;;28.60;75.80;;;;;;5051934;28;20431;-48
2023/06/25 12:19:01;;;;;;;7.67;5.90;;;28.70;76.70;;;;;;5051471;28;20450;-47
2023/06/25 12:21:27;;;;;;;9.37;5.57;;;28.70;77.00;;;;;;5051448;28;20508;-48
2023/06/25 12:23:54;;;;;;;5.83;5.33;;;28.70;76.80;;;;;;5051548;28;20461;-48
2023/06/25 12:26:20;;;;;;;6.00;5.50;;;28.60;76.70;;;;;;5052627;28;20947;-48
2023/06/25 12:28:48;;;;;;;5.27;4.87;;;28.60;76.70;;;;;;5051342;28;20437;-49
2023/06/25 12:31:14;;;;;;;6.33;5.73;;;28.50;77.00;;;;;;5051876;28;20431;-47
2023/06/25 12:33:42;;;;;;;6.67;5.97;;;28.50;77.30;;;;;;5051548;28;20888;-47
2023/06/25 12:36:09;;;;;;;10.17;6.67;;;28.20;77.70;;;;;;5051754;28;20478;-49
2023/06/25 12:38:35;;;;;;;7.30;6.03;;;28.30;77.80;;;;;;5051605;28;20453;-48